Glendon, Canada
Current Conditions -  °F | °C
As of 3:00 AM on Saturday 22 Nov 2014 (Local Time) from CYOD Reporting Station
Overcast Overcast  
Wind Chill:   Ceiling: 800
Heat Index: 19°   Visibility: 15mi
Dew Point: 18°   Wind: 16mph
Humidity: 93%   Direction: 100°E
Pressure: 29.43"   Gusts: NA
Location:  54.25°N, 111.15°W
Report Text: CYOD 221000Z 10014KT 15SM OVC008 M07/M08 A2943 RMK SC8 SLP997
Loading
Personal Weather Stations






























Interactive Weather Map New forecast layout! Learn more

10-Day Weather Forecast

Advertisements
Track Severe Weather on mobile